• Join FlightAware (Why Join?)
  • Login
  • US Flag 
02:35AM EDT


 

Airport Tracker/Info


-or-


 

Live Flight TrackerFlight Track Log ✈ PDT4373 ✈ 18-Oct-2013 ✈ KBGM - KPHL

Flight Track Log - Related Links

Times and Time Zones

All times are in EDT time to prevent confusion due to time zone crossing. See the PDT4373 flight status page for this flight to view local times or setup timezone preferences in your user account.

Time Position Orientation Groundspeed Altitude Reporting Facility
EDT Latitude Longitude Course Direction KTS MPH feet Rate Location/Type
11:42AM 41.9591 -75.8981 180° South  Level Estimated
11:43AM 41.8968 -75.8779 154° Southeast  Level Estimated
11:44AM 41.8345 -75.8577 160° South  Level Estimated
11:45AM 41.7721 -75.8375 159° South  Level Estimated
11:46AM 41.7083 -75.8287 174° South  Level FlightAware Approximate
11:47AM 41.6460 -75.8082 153° Southeast  Level Estimated
11:48AM 41.5838 -75.7877 161° South  Level Estimated
11:49AM 41.5215 -75.7671 166° South  Level FlightAware Approximate
11:50AM 41.4593 -75.7466 166° South  Level FlightAware Approximate
11:51AM 41.3969 -75.7263 162° South  Level Estimated
11:52AM 41.3356 -75.7014 163° South  Level FlightAware Approximate
11:53AM 41.2742 -75.6767 163° South  Level FlightAware Approximate
11:54AM 41.2128 -75.6520 163° South  Level FlightAware Approximate
11:55AM 41.1504 -75.6325 159° South  Level Estimated
11:56AM 41.0880 -75.6130 163° South  Level Estimated
11:57AM 41.0271 -75.5861 162° South  Level FlightAware Approximate
11:58AM 40.9663 -75.5593 162° South  Level FlightAware Approximate
11:59AM 40.9054 -75.5326 162° South  Level FlightAware Approximate
12:00PM 40.8427 -75.5146 190° South  Level Estimated
12:01PM 40.7786 -75.5119 178° South  Level FlightAware Approximate
12:02PM 40.7145 -75.5091 178° South  Level FlightAware Approximate
12:03PM 40.6522 -75.4891 187° South  Level Estimated
12:04PM 40.5883 -75.4961 185° South  Level FlightAware Approximate
12:05PM 40.5264 -75.4738 190° South  Level Estimated
12:05PM 40.5833 -75.5500 143° Southeast 256 295 5,000  Level Philadelphia TRACON
12:05PM 40.5500 -75.5500 180° South 247 284 5,000  Level Philadelphia TRACON
12:06PM 40.4565 -75.4931 192° South  Level FlightAware Approximate
12:06PM 40.4833 -75.5500 180° South 240 276 5,000  Level Philadelphia TRACON
12:07PM 40.3887 -75.4636 180° South  Level Estimated
12:07PM 40.4333 -75.5000 143° Southeast 256 295 5,000  Level Philadelphia TRACON
12:08PM 40.3208 -75.4342 143° Southeast  Level Estimated
12:08PM 40.3833 -75.4333 135° Southeast 249 287 4,900  Level Philadelphia TRACON
12:09PM 40.2530 -75.4047 143° Southeast  Level Estimated
12:09PM 40.3167 -75.3833 150° Southeast 251 289 4,100  Level Philadelphia TRACON
12:10PM 40.1851 -75.3754 143° Southeast  Level Estimated
12:10PM 40.2667 -75.3167 134° Southeast 240 276 4,000  Level Philadelphia TRACON
12:11PM 40.2167 -75.2833 153° Southeast 227 261 4,000  Level Philadelphia TRACON
12:12PM 40.1667 -75.2500 153° Southeast 222 255 4,000  Level Philadelphia TRACON
12:13PM 40.1000 -75.2333 169° South 215 247 4,000  Level Philadelphia TRACON
12:14PM 40.0500 -75.2000 153° Southeast 216 249 4,000  Level Philadelphia TRACON
12:15PM 39.9833 -75.1833 169° South 214 246 4,000  Level Philadelphia TRACON
12:16PM 39.9333 -75.1667 166° South 213 245 4,000 -180 Level Philadelphia TRACON
12:17PM 39.8833 -75.1500 166° South 213 245 3,700 -900 Descending Philadelphia TRACON
12:18PM 39.8167 -75.1333 169° South 208 239 2,200 -1,020 Descending Philadelphia TRACON
12:19PM 39.8000 -75.1833 247° West 158 182 1,700 -600 Descending Philadelphia TRACON
12:20PM 39.8333 -75.2000 339° North 132 152 1,000 -720 Descending Philadelphia TRACON
12:21PM 39.8500 -75.2167 322° Northwest 112 129 300 -720 Descending Philadelphia TRACON